sensor_id;sensor_type;location;lat;lon;timestamp;temperature;humidity
55693;DHT22;41590;53.366;5.212;2023-04-24T00:50:16;11.70;99.90
55693;DHT22;41590;53.366;5.212;2023-04-24T01:11:30;10.10;99.90
55693;DHT22;41590;53.366;5.212;2023-04-24T01:14:18;10.20;99.90
55693;DHT22;41590;53.366;5.212;2023-04-24T01:16:59;9.70;99.90
55693;DHT22;41590;53.366;5.212;2023-04-24T01:19:33;10.10;99.90
55693;DHT22;41590;53.366;5.212;2023-04-24T01:22:14;10.10;99.90
55693;DHT22;41590;53.366;5.212;2023-04-24T01:25:18;9.00;99.90
55693;DHT22;41590;53.366;5.212;2023-04-24T01:31:37;10.20;99.90
55693;DHT22;41590;53.366;5.212;2023-04-24T01:34:08;9.60;99.90
55693;DHT22;41590;53.366;5.212;2023-04-24T01:37:13;8.30;99.90
55693;DHT22;41590;53.366;5.212;2023-04-24T01:40:05;8.70;99.90
55693;DHT22;41590;53.366;5.212;2023-04-24T02:36:44;8.60;99.90
55693;DHT22;41590;53.366;5.212;2023-04-24T02:39:29;9.80;99.90
55693;DHT22;41590;53.366;5.212;2023-04-24T02:42:02;9.60;99.90
55693;DHT22;41590;53.366;5.212;2023-04-24T02:48:40;9.70;99.90
55693;DHT22;41590;53.366;5.212;2023-04-24T02:51:17;8.50;99.90
55693;DHT22;41590;53.366;5.212;2023-04-24T03:01:14;8.90;99.90
55693;DHT22;41590;53.366;5.212;2023-04-24T03:04:14;8.60;99.90
55693;DHT22;41590;53.366;5.212;2023-04-24T03:18:27;9.40;99.90
55693;DHT22;41590;53.366;5.212;2023-04-24T03:21:52;9.40;99.90
55693;DHT22;41590;53.366;5.212;2023-04-24T03:39:29;9.30;99.90
55693;DHT22;41590;53.366;5.212;2023-04-24T03:58:24;9.10;99.90
55693;DHT22;41590;53.366;5.212;2023-04-24T04:01:42;11.20;99.90
55693;DHT22;41590;53.366;5.212;2023-04-24T04:11:56;8.60;99.90
55693;DHT22;41590;53.366;5.212;2023-04-24T04:18:11;7.90;99.90
55693;DHT22;41590;53.366;5.212;2023-04-24T04:20:52;9.30;99.90
55693;DHT22;41590;53.366;5.212;2023-04-24T04:23:42;8.40;99.90
55693;DHT22;41590;53.366;5.212;2023-04-24T04:29:28;8.50;99.90
55693;DHT22;41590;53.366;5.212;2023-04-24T04:32:14;8.50;99.90
55693;DHT22;41590;53.366;5.212;2023-04-24T04:35:01;9.50;99.90
55693;DHT22;41590;53.366;5.212;2023-04-24T04:37:39;8.50;99.90
55693;DHT22;41590;53.366;5.212;2023-04-24T04:40:41;9.50;99.90
55693;DHT22;41590;53.366;5.212;2023-04-24T04:46:16;9.60;99.90
55693;DHT22;41590;53.366;5.212;2023-04-24T04:49:01;8.50;99.90
55693;DHT22;41590;53.366;5.212;2023-04-24T04:51:48;7.30;99.90
55693;DHT22;41590;53.366;5.212;2023-04-24T04:57:07;8.70;99.90
55693;DHT22;41590;53.366;5.212;2023-04-24T04:59:49;9.80;99.90
55693;DHT22;41590;53.366;5.212;2023-04-24T05:02:21;8.30;99.90
55693;DHT22;41590;53.366;5.212;2023-04-24T05:04:49;8.10;99.90
55693;DHT22;41590;53.366;5.212;2023-04-24T05:07:24;8.10;99.90
55693;DHT22;41590;53.366;5.212;2023-04-24T05:10:09;8.80;99.90
55693;DHT22;41590;53.366;5.212;2023-04-24T05:13:06;8.10;99.90
55693;DHT22;41590;53.366;5.212;2023-04-24T05:15:43;8.10;99.90
55693;DHT22;41590;53.366;5.212;2023-04-24T05:21:28;8.10;99.90
55693;DHT22;41590;53.366;5.212;2023-04-24T05:24:08;7.90;99.90
55693;DHT22;41590;53.366;5.212;2023-04-24T05:26:39;8.10;99.90
55693;DHT22;41590;53.366;5.212;2023-04-24T05:29:12;8.90;99.90
55693;DHT22;41590;53.366;5.212;2023-04-24T05:31:55;8.90;99.90
55693;DHT22;41590;53.366;5.212;2023-04-24T05:37:34;8.80;99.90
55693;DHT22;41590;53.366;5.212;2023-04-24T05:40:19;7.80;99.90
55693;DHT22;41590;53.366;5.212;2023-04-24T05:42:50;8.00;99.90
55693;DHT22;41590;53.366;5.212;2023-04-24T05:45:41;8.90;99.90
55693;DHT22;41590;53.366;5.212;2023-04-24T05:48:12;8.30;99.90
55693;DHT22;41590;53.366;5.212;2023-04-24T05:51:10;8.70;99.90
55693;DHT22;41590;53.366;5.212;2023-04-24T05:53:38;8.40;99.90
55693;DHT22;41590;53.366;5.212;2023-04-24T05:59:18;8.40;99.90
55693;DHT22;41590;53.366;5.212;2023-04-24T06:01:53;8.10;99.90
55693;DHT22;41590;53.366;5.212;2023-04-24T06:04:34;7.70;99.90
55693;DHT22;41590;53.366;5.212;2023-04-24T06:07:10;8.40;99.90
55693;DHT22;41590;53.366;5.212;2023-04-24T06:23:20;9.30;99.90
55693;DHT22;41590;53.366;5.212;2023-04-24T06:26:19;7.80;99.90
55693;DHT22;41590;53.366;5.212;2023-04-24T06:29:04;9.30;99.90
55693;DHT22;41590;53.366;5.212;2023-04-24T06:31:50;8.30;99.90
55693;DHT22;41590;53.366;5.212;2023-04-24T06:34:38;8.40;99.90
55693;DHT22;41590;53.366;5.212;2023-04-24T06:37:14;8.10;99.90
55693;DHT22;41590;53.366;5.212;2023-04-24T06:39:51;8.30;99.90
55693;DHT22;41590;53.366;5.212;2023-04-24T06:42:17;8.60;99.90
55693;DHT22;41590;53.366;5.212;2023-04-24T06:45:11;8.20;99.90
55693;DHT22;41590;53.366;5.212;2023-04-24T06:48:17;8.70;99.90
55693;DHT22;41590;53.366;5.212;2023-04-24T06:51:05;8.20;99.90
55693;DHT22;41590;53.366;5.212;2023-04-24T06:53:43;8.20;99.90
55693;DHT22;41590;53.366;5.212;2023-04-24T06:56:56;8.40;99.90
55693;DHT22;41590;53.366;5.212;2023-04-24T07:03:54;9.00;99.90
55693;DHT22;41590;53.366;5.212;2023-04-24T07:25:01;11.20;99.90
55693;DHT22;41590;53.366;5.212;2023-04-24T07:45:18;9.80;99.90
55693;DHT22;41590;53.366;5.212;2023-04-24T08:00:24;10.10;99.90
55693;DHT22;41590;53.366;5.212;2023-04-24T08:12:35;11.50;99.90
55693;DHT22;41590;53.366;5.212;2023-04-24T08:45:43;10.00;99.90
55693;DHT22;41590;53.366;5.212;2023-04-24T08:52:50;10.00;99.90
55693;DHT22;41590;53.366;5.212;2023-04-24T08:59:14;10.20;99.90
55693;DHT22;41590;53.366;5.212;2023-04-24T09:12:39;10.40;99.90
55693;DHT22;41590;53.366;5.212;2023-04-24T09:15:18;11.50;99.90
55693;DHT22;41590;53.366;5.212;2023-04-24T09:22:13;11.90;99.90
55693;DHT22;41590;53.366;5.212;2023-04-24T09:25:36;9.70;99.90
55693;DHT22;41590;53.366;5.212;2023-04-24T09:28:02;10.20;99.90
55693;DHT22;41590;53.366;5.212;2023-04-24T09:34:05;9.80;99.90
55693;DHT22;41590;53.366;5.212;2023-04-24T09:36:36;10.70;99.90
55693;DHT22;41590;53.366;5.212;2023-04-24T09:39:21;10.50;99.90
55693;DHT22;41590;53.366;5.212;2023-04-24T09:42:08;10.70;99.90
55693;DHT22;41590;53.366;5.212;2023-04-24T09:44:36;10.80;99.90
55693;DHT22;41590;53.366;5.212;2023-04-24T09:47:09;10.60;99.90
55693;DHT22;41590;53.366;5.212;2023-04-24T09:53:27;10.50;99.90
55693;DHT22;41590;53.366;5.212;2023-04-24T09:56:11;10.40;99.90
55693;DHT22;41590;53.366;5.212;2023-04-24T09:58:54;10.40;99.90
55693;DHT22;41590;53.366;5.212;2023-04-24T10:01:51;9.90;99.90
55693;DHT22;41590;53.366;5.212;2023-04-24T10:04:39;9.80;99.90
55693;DHT22;41590;53.366;5.212;2023-04-24T10:07:15;9.60;99.90
55693;DHT22;41590;53.366;5.212;2023-04-24T10:09:50;9.60;99.90
55693;DHT22;41590;53.366;5.212;2023-04-24T10:12:36;10.50;99.90
55693;DHT22;41590;53.366;5.212;2023-04-24T10:15:30;9.40;99.90
55693;DHT22;41590;53.366;5.212;2023-04-24T10:17:58;9.50;99.90
55693;DHT22;41590;53.366;5.212;2023-04-24T10:20:27;9.60;99.90
55693;DHT22;41590;53.366;5.212;2023-04-24T10:23:25;9.90;99.90
55693;DHT22;41590;53.366;5.212;2023-04-24T10:29:31;9.70;99.90
55693;DHT22;41590;53.366;5.212;2023-04-24T10:32:19;9.50;99.90
55693;DHT22;41590;53.366;5.212;2023-04-24T10:34:54;9.30;99.90
55693;DHT22;41590;53.366;5.212;2023-04-24T10:37:40;9.30;99.90
55693;DHT22;41590;53.366;5.212;2023-04-24T10:40:07;9.20;99.90
55693;DHT22;41590;53.366;5.212;2023-04-24T10:42:35;9.30;99.90
55693;DHT22;41590;53.366;5.212;2023-04-24T10:45:24;9.30;99.90
55693;DHT22;41590;53.366;5.212;2023-04-24T10:48:14;9.70;99.90
55693;DHT22;41590;53.366;5.212;2023-04-24T10:50:44;9.60;99.90
55693;DHT22;41590;53.366;5.212;2023-04-24T10:53:23;9.80;99.90
55693;DHT22;41590;53.366;5.212;2023-04-24T10:59:41;11.60;99.90
55693;DHT22;41590;53.366;5.212;2023-04-24T11:02:09;10.30;99.90
55693;DHT22;41590;53.366;5.212;2023-04-24T11:04:55;10.50;99.90
55693;DHT22;41590;53.366;5.212;2023-04-24T11:11:18;10.60;99.90
55693;DHT22;41590;53.366;5.212;2023-04-24T11:14:07;10.70;99.90
55693;DHT22;41590;53.366;5.212;2023-04-24T11:20:11;10.60;99.90
55693;DHT22;41590;53.366;5.212;2023-04-24T11:23:06;10.60;99.90
55693;DHT22;41590;53.366;5.212;2023-04-24T11:30:28;10.90;99.90
55693;DHT22;41590;53.366;5.212;2023-04-24T11:32:56;11.00;99.90
55693;DHT22;41590;53.366;5.212;2023-04-24T11:35:40;10.90;99.90
55693;DHT22;41590;53.366;5.212;2023-04-24T11:38:17;12.30;99.90
55693;DHT22;41590;53.366;5.212;2023-04-24T11:40:54;10.90;99.90
55693;DHT22;41590;53.366;5.212;2023-04-24T11:43:39;11.20;99.90
55693;DHT22;41590;53.366;5.212;2023-04-24T11:46:05;11.30;99.90
55693;DHT22;41590;53.366;5.212;2023-04-24T11:59:10;12.50;99.90
55693;DHT22;41590;53.366;5.212;2023-04-24T12:01:49;12.20;99.90
55693;DHT22;41590;53.366;5.212;2023-04-24T12:04:38;12.10;99.90
55693;DHT22;41590;53.366;5.212;2023-04-24T12:07:12;12.00;99.90
55693;DHT22;41590;53.366;5.212;2023-04-24T12:12:39;11.80;99.90
55693;DHT22;41590;53.366;5.212;2023-04-24T12:18:32;11.10;99.90
55693;DHT22;41590;53.366;5.212;2023-04-24T12:21:24;10.90;99.90
55693;DHT22;41590;53.366;5.212;2023-04-24T12:24:16;10.60;99.90
55693;DHT22;41590;53.366;5.212;2023-04-24T12:27:06;10.10;99.90
55693;DHT22;41590;53.366;5.212;2023-04-24T12:30:00;10.60;99.90
55693;DHT22;41590;53.366;5.212;2023-04-24T12:35:54;10.70;99.90
55693;DHT22;41590;53.366;5.212;2023-04-24T12:44:17;10.10;99.90
55693;DHT22;41590;53.366;5.212;2023-04-24T12:46:50;10.20;99.90
55693;DHT22;41590;53.366;5.212;2023-04-24T12:49:25;10.40;99.90
55693;DHT22;41590;53.366;5.212;2023-04-24T12:52:22;10.80;99.90
55693;DHT22;41590;53.366;5.212;2023-04-24T12:55:00;10.80;99.90
55693;DHT22;41590;53.366;5.212;2023-04-24T12:57:31;10.90;99.90
55693;DHT22;41590;53.366;5.212;2023-04-24T13:00:22;10.80;99.90
55693;DHT22;41590;53.366;5.212;2023-04-24T13:06:10;11.00;99.90
55693;DHT22;41590;53.366;5.212;2023-04-24T13:08:46;10.70;99.90
55693;DHT22;41590;53.366;5.212;2023-04-24T13:11:17;10.70;99.90
55693;DHT22;41590;53.366;5.212;2023-04-24T13:13:48;10.80;99.90
55693;DHT22;41590;53.366;5.212;2023-04-24T13:19:34;10.80;99.90
55693;DHT22;41590;53.366;5.212;2023-04-24T13:22:23;10.60;99.90
55693;DHT22;41590;53.366;5.212;2023-04-24T13:25:13;10.50;99.90
55693;DHT22;41590;53.366;5.212;2023-04-24T13:34:11;10.90;99.90
55693;DHT22;41590;53.366;5.212;2023-04-24T13:37:01;10.70;99.90
55693;DHT22;41590;53.366;5.212;2023-04-24T13:40:07;10.70;99.90
55693;DHT22;41590;53.366;5.212;2023-04-24T13:42:53;10.20;99.90
55693;DHT22;41590;53.366;5.212;2023-04-24T13:45:35;10.10;99.90
55693;DHT22;41590;53.366;5.212;2023-04-24T13:48:40;10.20;99.90
55693;DHT22;41590;53.366;5.212;2023-04-24T13:51:08;10.50;99.90
55693;DHT22;41590;53.366;5.212;2023-04-24T13:53:40;10.40;99.90
55693;DHT22;41590;53.366;5.212;2023-04-24T13:56:16;10.40;99.90
55693;DHT22;41590;53.366;5.212;2023-04-24T13:58:45;10.40;99.90
55693;DHT22;41590;53.366;5.212;2023-04-24T14:01:14;10.20;99.90
55693;DHT22;41590;53.366;5.212;2023-04-24T14:03:55;10.10;99.90
55693;DHT22;41590;53.366;5.212;2023-04-24T14:06:39;10.80;99.90
55693;DHT22;41590;53.366;5.212;2023-04-24T14:09:24;10.20;99.90
55693;DHT22;41590;53.366;5.212;2023-04-24T14:11:51;10.50;99.90
55693;DHT22;41590;53.366;5.212;2023-04-24T14:14:27;10.40;99.90
55693;DHT22;41590;53.366;5.212;2023-04-24T14:17:23;10.40;99.90
55693;DHT22;41590;53.366;5.212;2023-04-24T14:23:29;9.40;99.90
55693;DHT22;41590;53.366;5.212;2023-04-24T14:25:59;9.30;99.90
55693;DHT22;41590;53.366;5.212;2023-04-24T14:28:30;9.00;99.90
55693;DHT22;41590;53.366;5.212;2023-04-24T14:31:11;9.10;99.90
55693;DHT22;41590;53.366;5.212;2023-04-24T14:33:36;9.30;99.90
55693;DHT22;41590;53.366;5.212;2023-04-24T14:36:08;9.60;99.90
55693;DHT22;41590;53.366;5.212;2023-04-24T14:39:01;9.30;99.90
55693;DHT22;41590;53.366;5.212;2023-04-24T14:41:41;9.10;99.90
55693;DHT22;41590;53.366;5.212;2023-04-24T14:44:11;8.80;99.90
55693;DHT22;41590;53.366;5.212;2023-04-24T14:47:02;9.40;99.90
55693;DHT22;41590;53.366;5.212;2023-04-24T14:49:34;9.40;99.90
55693;DHT22;41590;53.366;5.212;2023-04-24T14:52:01;8.90;99.90
55693;DHT22;41590;53.366;5.212;2023-04-24T14:54:49;8.30;99.90
55693;DHT22;41590;53.366;5.212;2023-04-24T14:57:18;10.00;99.90
55693;DHT22;41590;53.366;5.212;2023-04-24T15:15:18;9.00;99.90
55693;DHT22;41590;53.366;5.212;2023-04-24T15:17:54;8.20;99.90
